createdAt,value
2018-04-14T00:01:12.171Z,101492.50
2018-04-14T00:03:45.884Z,101493.95
2018-04-14T00:06:19.717Z,101497.52
2018-04-14T00:08:53.228Z,101501.59
2018-04-14T00:11:27.754Z,101502.17
2018-04-14T00:14:01.487Z,101508.03
2018-04-14T00:16:35.148Z,101510.79
2018-04-14T00:19:08.766Z,101501.98
2018-04-14T00:21:42.348Z,101504.79
2018-04-14T00:24:16.018Z,101510.11
2018-04-14T00:26:49.563Z,101507.19
2018-04-14T00:29:23.096Z,101515.80
2018-04-14T00:31:56.813Z,101520.11
2018-04-14T00:34:30.323Z,101528.47
2018-04-14T00:37:04.033Z,101525.87
2018-04-14T00:39:38.527Z,101521.94
2018-04-14T00:42:12.032Z,101525.78
2018-04-14T00:44:45.583Z,101529.45
2018-04-14T00:47:19.355Z,101531.09
2018-04-14T00:49:53.059Z,101534.91
2018-04-14T00:52:27.130Z,101546.56
2018-04-14T01:04:46.819Z,101551.17
2018-04-14T01:07:21.343Z,101548.97
2018-04-14T01:09:54.965Z,101553.07
2018-04-14T01:12:28.806Z,101558.83
2018-04-14T01:15:02.474Z,101558.07
2018-04-14T01:17:36.133Z,101557.32
2018-04-14T01:20:09.759Z,101564.72
2018-04-14T01:22:43.413Z,101560.00
2018-04-14T01:25:16.958Z,101566.63
2018-04-14T01:27:50.531Z,101567.11
2018-04-14T01:30:24.164Z,101571.38
2018-04-14T01:32:58.390Z,101568.46
2018-04-14T01:35:32.091Z,101567.34
2018-04-14T01:38:06.039Z,101563.77
2018-04-14T01:40:39.692Z,101565.86
2018-04-14T01:43:13.216Z,101563.17
2018-04-14T01:45:46.944Z,101563.46
2018-04-14T01:48:20.577Z,101570.86
2018-04-14T01:50:54.264Z,101567.68
2018-04-14T01:53:27.789Z,101564.98
2018-04-14T01:56:01.292Z,101566.13
2018-04-14T01:58:35.667Z,101563.11
2018-04-14T02:01:09.201Z,101565.23
2018-04-14T02:03:43.208Z,101568.46
2018-04-14T02:06:17.766Z,101569.63
2018-04-14T02:08:51.381Z,101573.66
2018-04-14T02:11:24.917Z,101566.46
2018-04-14T02:13:59.585Z,101567.48
2018-04-14T02:16:33.202Z,101566.57
2018-04-14T02:19:07.744Z,101563.72
2018-04-14T02:21:41.530Z,101565.72
2018-04-14T02:24:15.746Z,101564.69
2018-04-14T02:26:49.506Z,101563.91
2018-04-14T02:29:24.025Z,101563.45
2018-04-14T02:31:57.905Z,101560.64
2018-04-14T02:34:31.550Z,101565.23
2018-04-14T02:37:06.506Z,101563.16
2018-04-14T02:39:40.194Z,101569.89
2018-04-14T02:42:13.838Z,101562.42
2018-04-14T02:44:47.462Z,101568.16
2018-04-14T02:47:21.274Z,101564.42
2018-04-14T02:49:55.018Z,101568.20
2018-04-14T02:52:28.612Z,101576.33
2018-04-14T02:55:02.302Z,101582.37
2018-04-14T02:57:35.912Z,101578.41
2018-04-14T03:00:09.652Z,101580.55
2018-04-14T03:02:43.322Z,101587.25
2018-04-14T03:05:16.979Z,101587.86
2018-04-14T03:07:50.646Z,101581.50
2018-04-14T03:10:24.325Z,101578.39
2018-04-14T03:12:57.786Z,101580.73
2018-04-14T03:15:32.690Z,101584.06
2018-04-14T03:18:06.488Z,101583.28
2018-04-14T03:20:40.162Z,101589.44
2018-04-14T03:23:13.754Z,101590.67
2018-04-14T03:25:47.418Z,101593.90
2018-04-14T03:28:21.000Z,101593.42
2018-04-14T03:30:55.016Z,101597.86
2018-04-14T03:33:28.616Z,101597.32
2018-04-14T03:36:02.912Z,101599.95
2018-04-14T03:38:36.550Z,101602.84
2018-04-14T03:41:10.279Z,101600.67
2018-04-14T03:43:43.932Z,101601.12
2018-04-14T03:46:18.210Z,101593.55
2018-04-14T03:48:51.995Z,101593.05
2018-04-14T03:51:26.156Z,101603.81
2018-04-14T04:07:04.974Z,101598.84
2018-04-14T04:09:38.552Z,101600.03
2018-04-14T04:12:12.167Z,101593.44
2018-04-14T04:14:46.561Z,101591.69
2018-04-14T04:17:20.303Z,101589.98
2018-04-14T04:20:06.010Z,101597.32
2018-04-14T04:22:51.646Z,101599.84
2018-04-14T04:25:40.222Z,101604.23
2018-04-14T04:28:13.808Z,101602.09
2018-04-14T04:30:48.178Z,101614.11
2018-04-14T04:33:21.666Z,101607.78
2018-04-14T04:35:55.198Z,101611.09
2018-04-14T04:38:29.731Z,101608.46
2018-04-14T04:41:03.499Z,101611.02
2018-04-14T04:43:37.095Z,101612.55
2018-04-14T04:46:10.847Z,101614.62
2018-04-14T04:48:44.487Z,101616.08
2018-04-14T04:51:18.970Z,101616.37
2018-04-14T04:53:52.610Z,101620.04
2018-04-14T04:56:26.365Z,101626.30
2018-04-14T05:08:45.385Z,101643.00
2018-04-14T05:11:19.211Z,101649.67
2018-04-14T05:13:52.847Z,101647.45
2018-04-14T05:16:26.347Z,101648.84
2018-04-14T05:18:59.918Z,101655.55
2018-04-14T05:21:33.522Z,101653.94
2018-04-14T05:24:07.222Z,101651.64
2018-04-14T05:26:40.691Z,101660.91
2018-04-14T05:29:14.348Z,101663.45
2018-04-14T05:31:47.964Z,101665.59
2018-04-14T05:34:21.519Z,101675.95
2018-04-14T05:36:55.027Z,101679.34
2018-04-14T05:39:29.804Z,101682.02
2018-04-14T05:42:03.608Z,101688.67
2018-04-14T05:44:37.152Z,101691.07
2018-04-14T05:47:10.817Z,101690.98
2018-04-14T05:49:44.564Z,101694.30
2018-04-14T05:52:18.811Z,101694.41
2018-04-14T05:54:52.555Z,101692.74
2018-04-14T06:00:06.107Z,101690.38
2018-04-14T06:02:39.908Z,101701.50
2018-04-14T06:05:13.583Z,101701.52
2018-04-14T06:07:47.237Z,101708.25
2018-04-14T06:10:20.779Z,101708.14
2018-04-14T06:12:54.307Z,101715.98
2018-04-14T06:15:27.864Z,101721.78
2018-04-14T06:18:02.040Z,101726.59
2018-04-14T06:20:37.290Z,101728.91
2018-04-14T06:23:11.147Z,101733.23
2018-04-14T06:25:44.895Z,101737.50
2018-04-14T06:28:18.457Z,101741.06
2018-04-14T06:30:52.011Z,101742.84
2018-04-14T06:33:25.629Z,101733.38
2018-04-14T06:35:59.878Z,101736.25
2018-04-14T06:38:33.474Z,101738.89
2018-04-14T06:41:07.343Z,101741.27
2018-04-14T06:43:40.978Z,101745.67
2018-04-14T06:59:15.039Z,101758.77
2018-04-14T07:01:48.703Z,101763.11
2018-04-14T07:04:22.359Z,101766.17
2018-04-14T07:06:56.055Z,101765.20
2018-04-14T07:09:29.619Z,101761.48
2018-04-14T07:12:03.191Z,101763.16
2018-04-14T07:14:36.835Z,101763.19
2018-04-14T07:17:10.588Z,101762.88
2018-04-14T07:19:44.133Z,101768.03
2018-04-14T07:22:17.679Z,101771.73
2018-04-14T07:24:51.372Z,101768.99
2018-04-14T07:27:24.957Z,101770.34
2018-04-14T07:29:59.439Z,101770.31
2018-04-14T07:32:33.071Z,101771.52
2018-04-14T07:35:07.611Z,101771.41
2018-04-14T07:37:41.121Z,101774.09
2018-04-14T07:40:14.862Z,101778.60
2018-04-14T07:42:48.461Z,101767.34
2018-04-14T07:45:22.498Z,101771.89
2018-04-14T07:47:56.190Z,101775.59
2018-04-14T07:50:30.018Z,101775.58
2018-04-14T07:53:03.598Z,101784.19
2018-04-14T07:55:37.348Z,101783.80
2018-04-14T07:58:10.903Z,101790.83
2018-04-14T08:00:44.467Z,101801.78
2018-04-14T08:03:18.150Z,101805.80
2018-04-14T08:05:51.754Z,101811.39
2018-04-14T08:08:26.451Z,101805.97
2018-04-14T08:11:00.164Z,101810.13
2018-04-14T08:13:33.909Z,101817.78
2018-04-14T08:16:07.627Z,101813.27
2018-04-14T08:18:42.172Z,101817.61
2018-04-14T08:21:15.781Z,101822.14
2018-04-14T08:23:49.504Z,101824.25
2018-04-14T08:26:23.168Z,101808.52
2018-04-14T08:28:57.566Z,101816.66
2018-04-14T08:31:31.147Z,101812.95
2018-04-14T08:34:04.669Z,101815.52
2018-04-14T08:36:38.178Z,101821.60
2018-04-14T08:39:11.724Z,101819.20
2018-04-14T08:41:45.414Z,101820.80
2018-04-14T08:44:18.935Z,101815.84
2018-04-14T08:46:52.603Z,101819.03
2018-04-14T08:49:26.174Z,101822.30
2018-04-14T08:51:59.913Z,101826.47
2018-04-14T09:04:18.631Z,101822.25
2018-04-14T09:06:52.411Z,101823.55
2018-04-14T09:09:26.062Z,101817.44
2018-04-14T09:11:59.787Z,101833.19
2018-04-14T09:14:33.361Z,101821.20
2018-04-14T09:17:06.948Z,101820.34
2018-04-14T09:19:41.787Z,101829.63
2018-04-14T09:22:15.543Z,101833.55
2018-04-14T09:24:49.771Z,101834.56
2018-04-14T09:27:23.516Z,101836.37
2018-04-14T09:29:57.073Z,101842.52
2018-04-14T09:32:30.688Z,101839.44
2018-04-14T09:35:04.230Z,101837.23
2018-04-14T09:37:37.960Z,101838.13
2018-04-14T09:40:11.631Z,101823.89
2018-04-14T09:42:45.335Z,101825.41
2018-04-14T09:45:19.170Z,101829.36
2018-04-14T09:47:52.859Z,101825.38
2018-04-14T09:50:26.637Z,101823.11
2018-04-14T09:53:00.372Z,101832.14
2018-04-14T09:55:33.907Z,101826.53
2018-04-14T09:58:07.699Z,101829.14
2018-04-14T10:00:46.935Z,101833.56
2018-04-14T10:03:23.391Z,101823.95
2018-04-14T10:05:57.160Z,101818.34
2018-04-14T10:08:30.794Z,101815.17
2018-04-14T10:11:04.454Z,101816.98
2018-04-14T10:13:39.130Z,101818.42
2018-04-14T10:16:12.940Z,101809.20
2018-04-14T10:18:46.691Z,101819.23
2018-04-14T10:21:20.161Z,101818.42
2018-04-14T10:23:53.795Z,101831.00
2018-04-14T10:26:28.407Z,101823.47
2018-04-14T10:29:01.998Z,101827.89
2018-04-14T10:31:35.675Z,101826.17
2018-04-14T10:34:09.194Z,101827.61
2018-04-14T10:36:43.149Z,101826.11
2018-04-14T10:39:16.740Z,101841.80
2018-04-14T10:41:50.414Z,101843.86
2018-04-14T10:44:23.974Z,101844.06
2018-04-14T10:46:57.514Z,101847.42
2018-04-14T10:49:31.065Z,101849.48
2018-04-14T10:52:04.684Z,101847.13
2018-04-14T10:54:38.184Z,101848.04
2018-04-14T10:57:11.704Z,101844.58
2018-04-14T10:59:45.752Z,101845.30
2018-04-14T11:02:19.517Z,101843.50
2018-04-14T11:04:53.253Z,101849.83
2018-04-14T11:07:26.820Z,101843.72
2018-04-14T11:10:00.566Z,101835.78
2018-04-14T11:12:34.180Z,101838.95
2018-04-14T11:15:08.696Z,101836.41
2018-04-14T11:17:42.864Z,101843.64
2018-04-14T11:20:16.347Z,101843.56
2018-04-14T11:22:50.206Z,101843.20
2018-04-14T11:25:23.926Z,101848.19
2018-04-14T11:27:57.482Z,101847.77
2018-04-14T11:30:31.226Z,101847.19
2018-04-14T11:33:05.202Z,101852.70
2018-04-14T11:35:38.851Z,101852.61
2018-04-14T11:38:13.378Z,101854.94
2018-04-14T11:40:47.138Z,101850.16
2018-04-14T11:43:20.988Z,101854.88
2018-04-14T11:45:54.999Z,101857.36
2018-04-14T11:48:28.814Z,101854.16
2018-04-14T11:51:02.472Z,101853.81
2018-04-14T11:53:36.300Z,101852.02
2018-04-14T11:56:10.270Z,101849.89
2018-04-14T11:58:43.972Z,101856.77
2018-04-14T12:01:17.618Z,101858.33
2018-04-14T12:03:51.250Z,101857.77
2018-04-14T12:06:25.001Z,101864.22
2018-04-14T12:08:58.807Z,101848.44
2018-04-14T12:11:32.381Z,101859.41
2018-04-14T12:14:06.392Z,101855.03
2018-04-14T12:16:40.768Z,101850.69
2018-04-14T12:19:14.742Z,101841.02
2018-04-14T12:21:48.468Z,101837.02
2018-04-14T12:24:22.079Z,101831.13
2018-04-14T12:26:56.091Z,101830.61
2018-04-14T12:29:29.821Z,101834.20
2018-04-14T12:32:04.031Z,101837.45
2018-04-14T12:34:37.664Z,101843.52
2018-04-14T12:37:11.370Z,101848.55
2018-04-14T12:39:45.158Z,101855.11
2018-04-14T12:42:18.825Z,101843.14
2018-04-14T12:44:52.461Z,101847.70
2018-04-14T12:47:26.015Z,101847.30
2018-04-14T12:49:59.639Z,101844.88
2018-04-14T12:52:33.392Z,101845.36
2018-04-14T12:55:07.056Z,101834.28
2018-04-14T12:57:40.587Z,101840.78
2018-04-14T13:00:14.783Z,101844.65
2018-04-14T13:02:48.794Z,101839.18
2018-04-14T13:05:22.938Z,101837.23
2018-04-14T13:07:56.458Z,101843.04
2018-04-14T13:10:30.000Z,101836.36
2018-04-14T13:13:04.518Z,101835.00
2018-04-14T13:15:38.074Z,101835.39
2018-04-14T13:18:11.828Z,101824.66
2018-04-14T13:20:45.584Z,101827.56
2018-04-14T13:23:19.448Z,101836.22
2018-04-14T13:25:53.112Z,101831.85
2018-04-14T13:28:27.163Z,101834.64
2018-04-14T13:31:00.969Z,101839.30
2018-04-14T13:33:34.507Z,101831.13
2018-04-14T13:36:09.778Z,101832.97
2018-04-14T13:38:44.383Z,101828.74
2018-04-14T13:41:18.048Z,101833.06
2018-04-14T13:43:51.626Z,101825.45
2018-04-14T13:46:25.486Z,101820.61
2018-04-14T13:49:00.049Z,101822.84
2018-04-14T13:51:33.707Z,101820.85
2018-04-14T13:54:07.331Z,101822.35
2018-04-14T13:56:41.827Z,101816.17
2018-04-14T13:59:15.643Z,101814.70
2018-04-14T14:01:49.357Z,101811.58
2018-04-14T14:04:23.167Z,101806.63
2018-04-14T14:06:57.440Z,101807.82
2018-04-14T14:09:31.060Z,101810.35
2018-04-14T14:12:04.689Z,101803.37
2018-04-14T14:14:38.483Z,101806.39
2018-04-14T14:17:12.009Z,101810.67
2018-04-14T14:19:45.694Z,101799.25
2018-04-14T14:22:19.888Z,101802.38
2018-04-14T14:24:53.638Z,101793.36
2018-04-14T14:27:28.564Z,101788.67
2018-04-14T14:30:02.178Z,101796.20
2018-04-14T14:32:35.884Z,101782.58
2018-04-14T14:35:09.684Z,101782.47
2018-04-14T14:37:44.264Z,101780.78
2018-04-14T14:40:17.862Z,101779.81
2018-04-14T14:42:51.844Z,101776.50
2018-04-14T14:45:25.884Z,101765.13
2018-04-14T14:47:59.587Z,101757.29
2018-04-14T14:50:33.242Z,101764.92
2018-04-14T14:53:07.787Z,101766.64
2018-04-14T14:55:41.446Z,101765.69
2018-04-14T14:58:15.318Z,101761.38
2018-04-14T15:00:48.974Z,101764.77
2018-04-14T15:03:22.644Z,101760.33
2018-04-14T15:05:56.278Z,101760.42
2018-04-14T15:08:30.348Z,101752.97
2018-04-14T15:11:03.954Z,101752.41
2018-04-14T15:13:37.669Z,101751.85
2018-04-14T15:16:11.354Z,101751.52
2018-04-14T15:18:45.008Z,101744.27
2018-04-14T15:21:18.774Z,101739.52
2018-04-14T15:23:52.408Z,101744.56
2018-04-14T15:26:26.280Z,101738.61
2018-04-14T15:28:59.988Z,101739.09
2018-04-14T15:31:33.681Z,101737.85
2018-04-14T15:34:07.347Z,101734.77
2018-04-14T15:36:41.788Z,101739.66
2018-04-14T15:39:15.608Z,101732.79
2018-04-14T15:41:49.146Z,101742.39
2018-04-14T15:44:23.210Z,101753.27
2018-04-14T15:46:58.674Z,101749.78
2018-04-14T15:49:32.224Z,101760.27
2018-04-14T15:52:05.838Z,101756.95
2018-04-14T15:54:39.591Z,101758.65
2018-04-14T15:57:13.182Z,101761.88
2018-04-14T15:59:46.989Z,101766.67
2018-04-14T16:02:21.212Z,101769.72
2018-04-14T16:04:54.726Z,101779.74
2018-04-14T16:07:28.247Z,101767.31
2018-04-14T16:10:02.037Z,101772.63
2018-04-14T16:12:36.637Z,101771.36
2018-04-14T16:15:10.541Z,101765.11
2018-04-14T16:17:44.066Z,101765.39
2018-04-14T16:20:18.206Z,101769.23
2018-04-14T16:22:51.774Z,101765.12
2018-04-14T16:25:25.593Z,101766.02
2018-04-14T16:27:59.213Z,101764.03
2018-04-14T16:30:32.743Z,101762.41
2018-04-14T16:33:07.158Z,101758.64
2018-04-14T16:35:40.999Z,101763.62
2018-04-14T16:38:14.664Z,101767.59
2018-04-14T16:40:48.321Z,101767.26
2018-04-14T16:43:22.061Z,101767.89
2018-04-14T16:45:55.782Z,101767.17
2018-04-14T16:48:29.526Z,101756.25
2018-04-14T16:51:03.108Z,101757.16
2018-04-14T16:53:36.755Z,101755.94
2018-04-14T16:56:11.396Z,101752.34
2018-04-14T16:58:44.921Z,101757.45
2018-04-14T17:01:19.336Z,101758.92
2018-04-14T17:03:53.204Z,101755.58
2018-04-14T17:06:27.113Z,101755.87
2018-04-14T17:09:01.299Z,101757.92
2018-04-14T17:11:35.140Z,101758.45
2018-04-14T17:14:08.798Z,101755.60
2018-04-14T17:16:42.512Z,101761.92
2018-04-14T17:19:16.222Z,101762.73
2018-04-14T17:21:49.841Z,101754.59
2018-04-14T17:24:23.644Z,101753.25
2018-04-14T17:26:57.265Z,101754.30
2018-04-14T17:29:31.004Z,101756.28
2018-04-14T17:32:04.547Z,101748.79
2018-04-14T17:34:38.250Z,101751.80
2018-04-14T17:37:11.834Z,101751.39
2018-04-14T17:39:45.915Z,101755.10
2018-04-14T17:42:19.493Z,101756.66
2018-04-14T17:44:53.983Z,101758.64
2018-04-14T17:47:27.552Z,101754.88
2018-04-14T17:50:01.277Z,101744.75
2018-04-14T17:52:35.014Z,101741.41
2018-04-14T17:55:08.834Z,101736.70
2018-04-14T17:57:43.805Z,101739.94
2018-04-14T18:00:18.418Z,101740.80
2018-04-14T18:02:52.037Z,101743.97
2018-04-14T18:05:26.487Z,101748.99
2018-04-14T18:08:00.165Z,101750.80
2018-04-14T18:10:33.923Z,101750.88
2018-04-14T18:13:07.550Z,101749.42
2018-04-14T18:15:41.267Z,101744.66
2018-04-14T18:18:15.185Z,101747.54
2018-04-14T18:20:48.749Z,101742.94
2018-04-14T18:23:22.694Z,101744.89
2018-04-14T18:25:56.507Z,101741.84
2018-04-14T18:28:30.218Z,101747.78
2018-04-14T18:31:03.826Z,101742.58
2018-04-14T18:33:37.542Z,101742.92
2018-04-14T18:36:11.053Z,101746.28
2018-04-14T18:38:44.673Z,101741.73
2018-04-14T18:41:18.250Z,101747.66
2018-04-14T18:43:51.980Z,101747.54
2018-04-14T18:46:26.471Z,101740.55
2018-04-14T18:49:00.154Z,101742.66
2018-04-14T18:51:34.836Z,101748.11
2018-04-14T18:54:09.410Z,101747.88
2018-04-14T18:56:43.044Z,101753.08
2018-04-14T18:59:16.842Z,101746.29
2018-04-14T19:01:50.875Z,101751.16
2018-04-14T19:04:24.516Z,101745.16
2018-04-14T19:06:58.276Z,101739.98
2018-04-14T19:09:32.348Z,101745.68
2018-04-14T19:12:05.896Z,101746.61
2018-04-14T19:14:39.977Z,101743.27
2018-04-14T19:17:13.664Z,101738.41
2018-04-14T19:19:47.492Z,101748.17
2018-04-14T19:22:22.138Z,101752.32
2018-04-14T19:24:55.906Z,101756.91
2018-04-14T19:27:29.652Z,101760.45
2018-04-14T19:30:03.784Z,101752.61
2018-04-14T19:32:37.292Z,101758.19
2018-04-14T19:35:11.720Z,101753.10
2018-04-14T19:37:45.542Z,101758.80
2018-04-14T19:40:19.229Z,101753.47
2018-04-14T19:42:52.860Z,101760.31
2018-04-14T19:45:26.448Z,101758.05
2018-04-14T19:47:59.984Z,101761.17
2018-04-14T19:50:34.617Z,101758.60
2018-04-14T19:53:08.411Z,101765.14
2018-04-14T19:55:42.257Z,101759.95
2018-04-14T19:58:15.929Z,101763.87
2018-04-14T20:00:49.573Z,101754.34
2018-04-14T20:03:23.389Z,101756.60
2018-04-14T20:05:56.956Z,101754.88
2018-04-14T20:08:30.506Z,101756.73
2018-04-14T20:11:04.541Z,101762.52
2018-04-14T20:13:38.980Z,101749.61
2018-04-14T20:16:13.881Z,101742.31
2018-04-14T20:18:48.325Z,101745.48
2018-04-14T20:21:21.999Z,101743.47
2018-04-14T20:23:55.698Z,101745.88
2018-04-14T20:26:29.235Z,101744.33
2018-04-14T20:29:03.107Z,101745.47
2018-04-14T20:31:36.893Z,101742.11
2018-04-14T20:34:10.660Z,101742.30
2018-04-14T20:36:44.264Z,101733.48
2018-04-14T20:39:17.940Z,101733.05
2018-04-14T20:41:51.563Z,101733.41
2018-04-14T20:44:25.216Z,101735.97
2018-04-14T20:46:59.663Z,101735.66
2018-04-14T20:49:33.428Z,101736.33
2018-04-14T20:52:07.650Z,101737.17
2018-04-14T20:54:41.299Z,101742.56
2018-04-14T20:57:15.204Z,101743.66
2018-04-14T20:59:48.895Z,101751.36
2018-04-14T21:02:23.103Z,101751.73
2018-04-14T21:04:57.695Z,101750.91
2018-04-14T21:07:31.192Z,101745.13
2018-04-14T21:10:04.763Z,101743.01
2018-04-14T21:12:38.401Z,101751.56
2018-04-14T21:15:11.948Z,101741.71
2018-04-14T21:17:45.582Z,101738.42
2018-04-14T21:20:20.179Z,101741.48
2018-04-14T21:22:53.783Z,101736.50
2018-04-14T21:25:28.344Z,101738.26
2018-04-14T21:28:02.029Z,101732.34
2018-04-14T21:30:35.803Z,101726.32
2018-04-14T21:33:09.577Z,101720.37
2018-04-14T21:35:43.239Z,101716.02
2018-04-14T21:38:16.717Z,101707.89
2018-04-14T21:40:50.265Z,101702.27
2018-04-14T21:43:24.045Z,101699.28
2018-04-14T21:45:57.668Z,101701.81
2018-04-14T21:48:31.317Z,101697.54
2018-04-14T21:51:05.112Z,101688.83
2018-04-14T21:53:38.829Z,101694.55
2018-04-14T21:56:12.419Z,101698.66
2018-04-14T21:58:47.324Z,101699.58
2018-04-14T22:01:21.129Z,101701.23
2018-04-14T22:03:54.723Z,101704.14
2018-04-14T22:06:29.117Z,101709.47
2018-04-14T22:09:02.649Z,101702.80
2018-04-14T22:21:22.255Z,101713.44
2018-04-14T22:23:55.935Z,101709.17
2018-04-14T22:26:29.906Z,101701.59
2018-04-14T22:29:03.649Z,101695.59
2018-04-14T22:31:38.300Z,101693.27
2018-04-14T22:34:12.156Z,101691.88
2018-04-14T22:36:45.740Z,101693.03
2018-04-14T22:39:19.508Z,101686.91
2018-04-14T22:41:53.492Z,101685.93
2018-04-14T22:44:27.518Z,101687.70
2018-04-14T22:47:01.618Z,101684.13
2018-04-14T22:49:35.387Z,101681.80
2018-04-14T22:52:09.036Z,101674.52
2018-04-14T22:54:42.726Z,101676.97
2018-04-14T22:57:16.307Z,101679.70
2018-04-14T22:59:50.095Z,101677.89
2018-04-14T23:02:23.654Z,101674.20
2018-04-14T23:04:57.344Z,101671.66
2018-04-14T23:07:31.416Z,101666.64
2018-04-14T23:10:05.065Z,101660.03
2018-04-14T23:12:38.874Z,101657.83
2018-04-14T23:15:13.394Z,101654.54
2018-04-14T23:17:47.941Z,101657.21
2018-04-14T23:20:21.911Z,101652.56
2018-04-14T23:22:55.416Z,101655.87
2018-04-14T23:25:29.168Z,101653.61
2018-04-14T23:28:02.711Z,101652.96
2018-04-14T23:30:36.860Z,101654.83
2018-04-14T23:33:11.831Z,101650.87
2018-04-14T23:35:45.372Z,101645.80
2018-04-14T23:38:18.887Z,101648.91
2018-04-14T23:50:37.636Z,101624.77
2018-04-14T23:53:11.271Z,101631.67
2018-04-14T23:55:45.989Z,101618.36
2018-04-14T23:58:19.509Z,101619.21
